Coffman Cove, Alaska
Current Conditions -  °F | °C
As of 10:53 AM on Thursday 23 Oct 2014 (Local Time) from PAKW Reporting Station
Few Clouds Few Clouds  
Wind Chill: 50°   Ceiling: Unl
Heat Index: 50°   Visibility: 10mi
Dew Point: 41°   Wind: 5mph
Humidity: 71%   Direction: 190°S
Pressure: 29.55"   Gusts: NA
Location:  56.01°N, 132.83°W
Report Text: PAKW 231853Z AUTO 19004KT 10SM FEW044 10/05 A2955 RMK AO2 SLP008 T01000050 TSNO
Loading
Personal Weather Stations






























Interactive Weather Map
Tropical Storm Tracking
New forecast layout! Learn more

10-Day Weather Forecast

Advertisements
Track Severe Weather on mobile